Time,TemperatureF,DewpointF,PressureIn,WindDirection,WindDirectionDegrees,WindSpeedMPH,WindSpeedGustMPH,Humidity,HourlyPrecipIn,Conditions,Clouds,dailyrainin,SoftwareType,DateUTC
2013-03-15 00:02:00,47.0,20.0,-100.00,WSW,253,26.0,37.0,32,0.00,,,-99.99,,2013-03-15 06:02:00,
2013-03-15 00:12:00,47.0,19.0,-100.00,WSW,251,24.0,35.0,32,0.00,,,-99.99,,2013-03-15 06:12:00,
2013-03-15 00:22:00,47.0,18.0,-100.00,WSW,248,25.0,37.0,31,0.00,,,-99.99,,2013-03-15 06:22:00,
2013-03-15 00:32:00,47.0,16.0,-100.00,WSW,253,25.0,34.0,29,0.00,,,-99.99,,2013-03-15 06:32:00,
2013-03-15 00:42:00,47.0,14.0,-100.00,West,264,21.0,35.0,26,0.00,,,-99.99,,2013-03-15 06:42:00,
2013-03-15 00:52:00,47.0,15.0,-100.00,WSW,257,24.0,34.0,28,0.00,,,-99.99,,2013-03-15 06:52:00,
2013-03-15 01:02:00,47.0,16.0,-100.00,West,264,22.0,32.0,29,0.00,,,-99.99,,2013-03-15 07:02:00,
2013-03-15 01:12:00,47.0,17.0,-100.00,West,265,20.0,31.0,29,0.00,,,-99.99,,2013-03-15 07:12:00,
2013-03-15 01:22:00,48.0,16.0,-100.00,West,277,19.0,31.0,28,0.00,,,-99.99,,2013-03-15 07:22:00,
2013-03-15 01:32:00,47.0,17.0,-100.00,West,272,21.0,35.0,30,0.00,,,-99.99,,2013-03-15 07:32:00,
2013-03-15 01:42:00,48.0,17.0,-100.00,West,263,26.0,35.0,29,0.00,,,-99.99,,2013-03-15 07:42:00,
2013-03-15 01:52:00,48.0,16.0,-100.00,WSW,257,27.0,38.0,27,0.00,,,-99.99,,2013-03-15 07:52:00,
2013-03-15 02:02:00,48.0,16.0,-100.00,WSW,258,30.0,47.0,27,0.00,,,-99.99,,2013-03-15 08:02:00,
2013-03-15 02:12:00,48.0,15.0,-100.00,West,260,32.0,47.0,27,0.00,,,-99.99,,2013-03-15 08:12:00,
2013-03-15 02:22:00,48.0,15.0,-100.00,West,261,26.0,37.0,27,0.00,,,-99.99,,2013-03-15 08:22:00,
2013-03-15 02:32:00,48.0,17.0,-100.00,WSW,257,26.0,35.0,28,0.00,,,-99.99,,2013-03-15 08:32:00,
2013-03-15 02:42:00,48.0,17.0,-100.00,West,260,30.0,45.0,28,0.00,,,-99.99,,2013-03-15 08:42:00,
2013-03-15 02:52:00,48.0,17.0,-100.00,West,260,32.0,50.0,29,0.00,,,-99.99,,2013-03-15 08:52:00,
2013-03-15 03:02:00,48.0,17.0,-100.00,West,264,29.0,40.0,29,0.00,,,-99.99,,2013-03-15 09:02:00,
2013-03-15 03:12:00,49.0,17.0,-100.00,West,264,32.0,47.0,28,0.00,,,-99.99,,2013-03-15 09:12:00,
2013-03-15 03:22:00,48.0,17.0,-100.00,West,264,30.0,43.0,29,0.00,,,-99.99,,2013-03-15 09:22:00,
2013-03-15 03:33:00,48.0,17.0,-100.00,West,260,32.0,44.0,28,0.00,,,-99.99,,2013-03-15 09:33:00,
2013-03-15 03:43:00,49.0,17.0,-100.00,WSW,257,35.0,49.0,28,0.00,,,-99.99,,2013-03-15 09:43:00,
2013-03-15 03:52:00,48.0,18.0,-100.00,West,261,34.0,48.0,29,0.00,,,-99.99,,2013-03-15 09:52:00,
2013-03-15 04:03:00,48.0,18.0,-100.00,West,260,36.0,46.0,29,0.00,,,-99.99,,2013-03-15 10:03:00,
2013-03-15 04:12:00,48.0,18.0,-100.00,WSW,258,35.0,46.0,30,0.00,,,-99.99,,2013-03-15 10:12:00,
2013-03-15 04:23:00,48.0,18.0,-100.00,West,260,34.0,46.0,30,0.00,,,-99.99,,2013-03-15 10:23:00,
2013-03-15 04:33:00,48.0,18.0,-100.00,West,261,35.0,46.0,30,0.00,,,-99.99,,2013-03-15 10:33:00,
2013-03-15 04:42:00,48.0,19.0,-100.00,West,261,32.0,41.0,31,0.00,,,-99.99,,2013-03-15 10:42:00,
2013-03-15 04:52:00,48.0,18.0,-100.00,West,261,32.0,46.0,30,0.00,,,-99.99,,2013-03-15 10:52:00,
2013-03-15 05:03:00,47.0,20.0,-100.00,West,260,28.0,41.0,33,0.00,,,-99.99,,2013-03-15 11:03:00,
2013-03-15 05:12:00,47.0,19.0,-100.00,West,260,26.0,39.0,33,0.00,,,-99.99,,2013-03-15 11:12:00,
2013-03-15 05:22:00,47.0,19.0,-100.00,WSW,258,26.0,33.0,31,0.00,,,-99.99,,2013-03-15 11:22:00,
2013-03-15 05:32:00,47.0,20.0,-100.00,WSW,258,25.0,35.0,33,0.00,,,-99.99,,2013-03-15 11:32:00,
2013-03-15 05:42:00,47.0,20.0,-100.00,WSW,253,30.0,38.0,33,0.00,,,-99.99,,2013-03-15 11:42:00,
2013-03-15 05:52:00,46.0,21.0,-100.00,WSW,256,28.0,38.0,36,0.00,,,-99.99,,2013-03-15 11:52:00,
2013-03-15 06:02:00,47.0,21.0,-100.00,WSW,257,27.0,39.0,35,0.00,,,-99.99,,2013-03-15 12:02:00,
2013-03-15 06:12:00,47.0,22.0,-100.00,WSW,258,26.0,38.0,37,0.00,,,-99.99,,2013-03-15 12:12:00,
2013-03-15 06:23:00,47.0,21.0,-100.00,WSW,258,27.0,39.0,35,0.00,,,-99.99,,2013-03-15 12:23:00,
2013-03-15 06:32:00,46.0,22.0,-100.00,West,261,26.0,37.0,37,0.00,,,-99.99,,2013-03-15 12:32:00,
2013-03-15 06:42:00,47.0,22.0,-100.00,West,263,28.0,41.0,37,0.00,,,-99.99,,2013-03-15 12:42:00,
2013-03-15 06:52:00,47.0,21.0,-100.00,West,263,29.0,40.0,36,0.00,,,-99.99,,2013-03-15 12:52:00,
2013-03-15 07:02:00,47.0,21.0,-100.00,West,261,30.0,40.0,36,0.00,,,-99.99,,2013-03-15 13:02:00,
2013-03-15 07:12:00,47.0,22.0,-100.00,WSW,258,31.0,42.0,36,0.00,,,-99.99,,2013-03-15 13:12:00,
2013-03-15 07:22:00,46.0,22.0,-100.00,WSW,258,26.0,37.0,39,0.00,,,-99.99,,2013-03-15 13:22:00,
2013-03-15 07:32:00,46.0,22.0,-100.00,WSW,258,26.0,34.0,39,0.00,,,-99.99,,2013-03-15 13:32:00,
2013-03-15 07:42:00,46.0,22.0,-100.00,WSW,258,25.0,32.0,39,0.00,,,-99.99,,2013-03-15 13:42:00,
2013-03-15 07:52:00,46.0,23.0,-100.00,WSW,258,24.0,37.0,40,0.00,,,-99.99,,2013-03-15 13:52:00,
2013-03-15 08:02:00,45.0,23.0,-100.00,WSW,256,26.0,35.0,40,0.00,,,-99.99,,2013-03-15 14:02:00,
2013-03-15 08:12:00,46.0,22.0,-100.00,WSW,254,26.0,35.0,38,0.00,,,-99.99,,2013-03-15 14:12:00,
2013-03-15 08:22:00,47.0,22.0,-100.00,WSW,253,27.0,34.0,37,0.00,,,-99.99,,2013-03-15 14:22:00,
2013-03-15 08:32:00,47.0,22.0,-100.00,WSW,253,26.0,37.0,37,0.00,,,-99.99,,2013-03-15 14:32:00,
2013-03-15 08:42:00,47.0,23.0,-100.00,WSW,253,23.0,32.0,38,0.00,,,-99.99,,2013-03-15 14:42:00,
2013-03-15 08:52:00,47.0,22.0,-100.00,WSW,253,26.0,39.0,38,0.00,,,-99.99,,2013-03-15 14:52:00,
2013-03-15 09:02:00,47.0,23.0,-100.00,WSW,247,25.0,34.0,37,0.00,,,-99.99,,2013-03-15 15:02:00,
2013-03-15 09:12:00,48.0,23.0,-100.00,WSW,247,25.0,34.0,36,0.00,,,-99.99,,2013-03-15 15:12:00,
2013-03-15 09:22:00,48.0,22.0,-100.00,West,261,23.0,34.0,37,0.00,,,-99.99,,2013-03-15 15:22:00,
2013-03-15 09:33:00,49.0,22.0,-100.00,West,267,24.0,32.0,35,0.00,,,-99.99,,2013-03-15 15:33:00,
2013-03-15 09:42:00,49.0,22.0,-100.00,West,265,26.0,37.0,35,0.00,,,-99.99,,2013-03-15 15:42:00,
2013-03-15 09:52:00,49.0,23.0,-100.00,West,264,26.0,37.0,35,0.00,,,-99.99,,2013-03-15 15:52:00,
2013-03-15 10:02:00,49.0,22.0,-100.00,West,264,29.0,44.0,35,0.00,,,-99.99,,2013-03-15 16:02:00,
2013-03-15 10:12:00,49.0,22.0,-100.00,West,265,29.0,48.0,34,0.00,,,-99.99,,2013-03-15 16:12:00,
2013-03-15 10:22:00,49.0,22.0,-100.00,West,267,27.0,40.0,33,0.00,,,-99.99,,2013-03-15 16:22:00,
2013-03-15 10:32:00,50.0,22.0,-100.00,West,267,29.0,45.0,33,0.00,,,-99.99,,2013-03-15 16:32:00,
2013-03-15 10:42:00,50.0,21.0,-100.00,West,268,27.0,43.0,32,0.00,,,-99.99,,2013-03-15 16:42:00,
2013-03-15 10:52:00,51.0,22.0,-100.00,West,265,29.0,49.0,32,0.00,,,-99.99,,2013-03-15 16:52:00,
2013-03-15 11:02:00,51.0,22.0,-100.00,West,263,27.0,38.0,31,0.00,,,-99.99,,2013-03-15 17:02:00,
2013-03-15 11:12:00,51.0,21.0,-100.00,West,265,28.0,40.0,30,0.00,,,-99.99,,2013-03-15 17:12:00,
2013-03-15 11:22:00,51.0,21.0,-100.00,West,265,31.0,41.0,30,0.00,,,-99.99,,2013-03-15 17:22:00,
2013-03-15 11:32:00,51.0,22.0,-100.00,West,270,29.0,42.0,31,0.00,,,-99.99,,2013-03-15 17:32:00,
2013-03-15 11:42:00,51.0,22.0,-100.00,West,270,29.0,42.0,31,0.00,,,-99.99,,2013-03-15 17:42:00,
2013-03-15 11:52:00,51.0,21.0,-100.00,West,268,29.0,41.0,31,0.00,,,-99.99,,2013-03-15 17:52:00,
2013-03-15 12:02:00,51.0,22.0,-100.00,West,267,29.0,43.0,32,0.00,,,-99.99,,2013-03-15 18:02:00,
2013-03-15 12:12:00,51.0,21.0,-100.00,West,267,29.0,43.0,31,0.00,,,-99.99,,2013-03-15 18:12:00,
2013-03-15 12:22:00,50.0,21.0,-100.00,West,264,27.0,38.0,31,0.00,,,-99.99,,2013-03-15 18:22:00,
2013-03-15 12:32:00,50.0,18.0,-100.00,West,264,32.0,44.0,28,0.00,,,-99.99,,2013-03-15 18:32:00,
2013-03-15 12:42:00,50.0,18.0,-100.00,West,267,29.0,39.0,28,0.00,,,-99.99,,2013-03-15 18:42:00,
2013-03-15 12:52:00,51.0,19.0,-100.00,West,265,29.0,41.0,28,0.00,,,-99.99,,2013-03-15 18:52:00,
2013-03-15 13:02:00,51.0,18.0,-100.00,West,268,29.0,39.0,27,0.00,,,-99.99,,2013-03-15 19:02:00,
2013-03-15 13:12:00,51.0,17.0,-100.00,West,264,30.0,39.0,26,0.00,,,-99.99,,2013-03-15 19:12:00,
2013-03-15 13:22:00,51.0,15.0,-100.00,West,268,26.0,39.0,24,0.00,,,-99.99,,2013-03-15 19:22:00,
2013-03-15 13:32:00,51.0,14.0,-100.00,West,267,27.0,43.0,23,0.00,,,-99.99,,2013-03-15 19:32:00,
2013-03-15 13:42:00,51.0,17.0,-100.00,West,270,25.0,35.0,25,0.00,,,-99.99,,2013-03-15 19:42:00,
2013-03-15 13:52:00,52.0,18.0,-100.00,West,263,26.0,39.0,26,0.00,,,-99.99,,2013-03-15 19:52:00,
2013-03-15 14:02:00,52.0,18.0,-100.00,West,265,26.0,39.0,25,0.00,,,-99.99,,2013-03-15 20:02:00,
2013-03-15 14:12:00,51.0,17.0,-100.00,West,264,30.0,42.0,26,0.00,,,-99.99,,2013-03-15 20:12:00,
2013-03-15 14:22:00,51.0,18.0,-100.00,West,261,32.0,42.0,27,0.00,,,-99.99,,2013-03-15 20:22:00,
2013-03-15 14:32:00,52.0,19.0,-100.00,WSW,258,24.0,34.0,27,0.00,,,-99.99,,2013-03-15 20:32:00,
2013-03-15 14:42:00,51.0,20.0,-100.00,West,270,29.0,40.0,29,0.00,,,-99.99,,2013-03-15 20:42:00,
2013-03-15 14:52:00,51.0,18.0,-100.00,West,267,29.0,41.0,27,0.00,,,-99.99,,2013-03-15 20:52:00,
2013-03-15 15:02:00,51.0,17.0,-100.00,West,265,29.0,39.0,26,0.00,,,-99.99,,2013-03-15 21:02:00,
2013-03-15 15:12:00,51.0,17.0,-100.00,West,265,30.0,39.0,25,0.00,,,-99.99,,2013-03-15 21:12:00,
2013-03-15 15:22:00,52.0,18.0,-100.00,West,268,24.0,34.0,26,0.00,,,-99.99,,2013-03-15 21:22:00,
2013-03-15 15:33:00,51.0,17.0,-100.00,West,263,25.0,38.0,25,0.00,,,-99.99,,2013-03-15 21:33:00,
2013-03-15 15:43:00,52.0,17.0,-100.00,West,263,26.0,36.0,25,0.00,,,-99.99,,2013-03-15 21:43:00,
2013-03-15 15:52:00,52.0,17.0,-100.00,West,263,24.0,34.0,24,0.00,,,-99.99,,2013-03-15 21:52:00,
2013-03-15 16:03:00,52.0,17.0,-100.00,West,268,24.0,32.0,24,0.00,,,-99.99,,2013-03-15 22:03:00,
2013-03-15 16:13:00,52.0,14.0,-100.00,West,265,24.0,33.0,22,0.00,,,-99.99,,2013-03-15 22:13:00,
2013-03-15 16:22:00,52.0,14.0,-100.00,West,263,25.0,34.0,21,0.00,,,-99.99,,2013-03-15 22:22:00,
2013-03-15 16:32:00,52.0,12.0,-100.00,West,260,22.0,32.0,20,0.00,,,-99.99,,2013-03-15 22:32:00,
2013-03-15 16:42:00,52.0,13.0,-100.00,West,268,23.0,34.0,21,0.00,,,-99.99,,2013-03-15 22:42:00,
2013-03-15 16:52:00,52.0,13.0,-100.00,West,264,22.0,30.0,21,0.00,,,-99.99,,2013-03-15 22:52:00,
2013-03-15 17:02:00,51.0,14.0,-100.00,West,267,22.0,34.0,22,0.00,,,-99.99,,2013-03-15 23:02:00,
2013-03-15 17:12:00,51.0,13.0,-100.00,West,265,23.0,34.0,21,0.00,,,-99.99,,2013-03-15 23:12:00,
2013-03-15 17:22:00,51.0,14.0,-100.00,West,264,25.0,33.0,23,0.00,,,-99.99,,2013-03-15 23:22:00,
2013-03-15 17:32:00,51.0,14.0,-100.00,West,265,22.0,30.0,22,0.00,,,-99.99,,2013-03-15 23:32:00,
2013-03-15 17:42:00,51.0,15.0,-100.00,West,270,21.0,31.0,24,0.00,,,-99.99,,2013-03-15 23:42:00,
2013-03-15 17:52:00,50.0,16.0,-100.00,West,267,21.0,29.0,25,0.00,,,-99.99,,2013-03-15 23:52:00,
2013-03-15 18:02:00,50.0,16.0,-100.00,West,271,19.0,32.0,25,0.00,,,-99.99,,2013-03-16 00:02:00,
2013-03-15 18:12:00,50.0,17.0,-100.00,West,272,21.0,32.0,26,0.00,,,-99.99,,2013-03-16 00:12:00,
2013-03-15 18:22:00,50.0,18.0,-100.00,West,277,17.0,31.0,28,0.00,,,-99.99,,2013-03-16 00:22:00,
2013-03-15 18:32:00,50.0,18.0,-100.00,West,270,20.0,32.0,28,0.00,,,-99.99,,2013-03-16 00:32:00,
2013-03-15 18:42:00,49.0,18.0,-100.00,West,261,21.0,32.0,28,0.00,,,-99.99,,2013-03-16 00:42:00,
2013-03-15 18:52:00,49.0,19.0,-100.00,West,265,17.0,24.0,30,0.00,,,-99.99,,2013-03-16 00:52:00,
2013-03-15 19:02:00,49.0,18.0,-100.00,West,267,17.0,24.0,29,0.00,,,-99.99,,2013-03-16 01:02:00,
2013-03-15 19:12:00,49.0,19.0,-100.00,West,271,17.0,26.0,30,0.00,,,-99.99,,2013-03-16 01:12:00,
2013-03-15 19:21:00,49.0,17.0,-100.00,West,264,17.0,24.0,28,0.00,,,-99.99,,2013-03-16 01:21:00,
2013-03-15 19:32:00,49.0,16.0,-100.00,West,261,17.0,27.0,27,0.00,,,-99.99,,2013-03-16 01:32:00,
2013-03-15 19:42:00,48.0,17.0,-100.00,West,260,16.0,26.0,29,0.00,,,-99.99,,2013-03-16 01:42:00,
2013-03-15 19:52:00,48.0,17.0,-100.00,West,264,12.0,19.0,28,0.00,,,-99.99,,2013-03-16 01:52:00,
2013-03-15 20:02:00,48.0,16.0,-100.00,West,264,14.0,22.0,28,0.00,,,-99.99,,2013-03-16 02:02:00,
2013-03-15 20:12:00,48.0,16.0,-100.00,West,264,16.0,24.0,28,0.00,,,-99.99,,2013-03-16 02:12:00,
2013-03-15 20:22:00,47.0,16.0,-100.00,WSW,257,16.0,23.0,29,0.00,,,-99.99,,2013-03-16 02:22:00,
2013-03-15 20:32:00,47.0,16.0,-100.00,WSW,258,17.0,26.0,28,0.00,,,-99.99,,2013-03-16 02:32:00,
2013-03-15 20:42:00,47.0,16.0,-100.00,West,260,16.0,24.0,28,0.00,,,-99.99,,2013-03-16 02:42:00,
2013-03-15 20:52:00,47.0,17.0,-100.00,WSW,257,16.0,22.0,31,0.00,,,-99.99,,2013-03-16 02:52:00,
2013-03-15 21:02:00,47.0,17.0,-100.00,WSW,257,17.0,28.0,30,0.00,,,-99.99,,2013-03-16 03:02:00,
2013-03-15 21:12:00,47.0,17.0,-100.00,WSW,256,17.0,28.0,30,0.00,,,-99.99,,2013-03-16 03:12:00,
2013-03-15 21:22:00,47.0,16.0,-100.00,WSW,258,20.0,29.0,29,0.00,,,-99.99,,2013-03-16 03:22:00,
2013-03-15 21:32:00,47.0,17.0,-100.00,West,261,17.0,23.0,30,0.00,,,-99.99,,2013-03-16 03:32:00,
2013-03-15 21:43:00,46.0,17.0,-100.00,West,263,17.0,24.0,30,0.00,,,-99.99,,2013-03-16 03:43:00,
2013-03-15 21:52:00,46.0,17.0,-100.00,West,264,18.0,27.0,30,0.00,,,-99.99,,2013-03-16 03:52:00,
2013-03-15 22:02:00,46.0,17.0,-100.00,West,268,16.0,23.0,31,0.00,,,-99.99,,2013-03-16 04:02:00,
2013-03-15 22:12:00,46.0,17.0,-100.00,West,268,17.0,24.0,32,0.00,,,-99.99,,2013-03-16 04:12:00,
2013-03-15 22:22:00,45.0,24.0,-100.00,West,263,21.0,33.0,44,0.00,,,-99.99,,2013-03-16 04:22:00,
2013-03-15 22:32:00,44.0,25.0,-100.00,WSW,244,27.0,36.0,47,0.00,,,-99.99,,2013-03-16 04:32:00,
2013-03-15 22:42:00,42.0,27.0,-100.00,WSW,251,25.0,35.0,53,0.00,,,-99.99,,2013-03-16 04:42:00,
2013-03-15 22:52:00,43.0,25.0,-100.00,WSW,246,24.0,35.0,49,0.00,,,-99.99,,2013-03-16 04:52:00,
2013-03-15 23:02:00,41.0,28.0,-100.00,WSW,241,24.0,35.0,59,0.00,,,-99.99,,2013-03-16 05:02:00,
2013-03-15 23:12:00,42.0,27.0,-100.00,WSW,247,24.0,33.0,55,0.00,,,-99.99,,2013-03-16 05:12:00,
2013-03-15 23:21:00,41.0,29.0,-100.00,West,267,20.0,31.0,60,0.00,,,-99.99,,2013-03-16 05:21:00,
2013-03-15 23:32:00,40.0,29.0,-100.00,WNW,287,19.0,28.0,64,0.00,,,-99.99,,2013-03-16 05:32:00,
2013-03-15 23:42:00,40.0,28.0,-100.00,WNW,285,13.0,21.0,62,0.00,,,-99.99,,2013-03-16 05:42:00,
2013-03-15 23:52:00,41.0,28.0,-100.00,West,265,17.0,26.0,60,0.00,,,-99.99,,2013-03-16 05:52:00,